sensor_id;sensor_type;location;lat;lon;timestamp;P1;durP1;ratioP1;P2;durP2;ratioP2
28988;SDS011;16089;59.952;10.818;2023-05-16T00:01:24;8.02;;;5.57;;
28988;SDS011;16089;59.952;10.818;2023-05-16T00:03:51;8.63;;;6.82;;
28988;SDS011;16089;59.952;10.818;2023-05-16T00:06:17;10.68;;;6.57;;
28988;SDS011;16089;59.952;10.818;2023-05-16T00:08:43;8.48;;;5.75;;
28988;SDS011;16089;59.952;10.818;2023-05-16T00:11:10;8.45;;;6.43;;
28988;SDS011;16089;59.952;10.818;2023-05-16T00:13:36;10.40;;;6.20;;
28988;SDS011;16089;59.952;10.818;2023-05-16T00:16:06;8.60;;;5.68;;
28988;SDS011;16089;59.952;10.818;2023-05-16T00:18:34;10.52;;;6.50;;
28988;SDS011;16089;59.952;10.818;2023-05-16T00:21:01;11.18;;;6.72;;
28988;SDS011;16089;59.952;10.818;2023-05-16T00:23:28;6.70;;;5.35;;
28988;SDS011;16089;59.952;10.818;2023-05-16T00:25:55;9.25;;;6.10;;
28988;SDS011;16089;59.952;10.818;2023-05-16T00:28:21;10.93;;;6.57;;
28988;SDS011;16089;59.952;10.818;2023-05-16T00:30:48;8.95;;;6.70;;
28988;SDS011;16089;59.952;10.818;2023-05-16T00:33:14;8.93;;;7.00;;
28988;SDS011;16089;59.952;10.818;2023-05-16T00:35:42;11.23;;;6.90;;
28988;SDS011;16089;59.952;10.818;2023-05-16T00:38:08;7.75;;;6.28;;
28988;SDS011;16089;59.952;10.818;2023-05-16T00:40:35;7.95;;;6.22;;
28988;SDS011;16089;59.952;10.818;2023-05-16T00:43:01;10.30;;;6.45;;
28988;SDS011;16089;59.952;10.818;2023-05-16T00:45:27;9.18;;;7.00;;
28988;SDS011;16089;59.952;10.818;2023-05-16T00:47:54;11.68;;;6.47;;
28988;SDS011;16089;59.952;10.818;2023-05-16T00:50:20;9.75;;;6.45;;
28988;SDS011;16089;59.952;10.818;2023-05-16T00:52:48;8.98;;;6.60;;
28988;SDS011;16089;59.952;10.818;2023-05-16T00:55:14;8.48;;;6.57;;
28988;SDS011;16089;59.952;10.818;2023-05-16T00:57:41;9.88;;;6.22;;
28988;SDS011;16089;59.952;10.818;2023-05-16T01:00:07;8.50;;;6.50;;
28988;SDS011;16089;59.952;10.818;2023-05-16T01:02:34;10.10;;;6.53;;
28988;SDS011;16089;59.952;10.818;2023-05-16T01:05:01;11.85;;;6.40;;
28988;SDS011;16089;59.952;10.818;2023-05-16T01:07:29;7.90;;;5.93;;
28988;SDS011;16089;59.952;10.818;2023-05-16T01:09:57;7.38;;;5.25;;
28988;SDS011;16089;59.952;10.818;2023-05-16T01:12:27;9.35;;;5.47;;
28988;SDS011;16089;59.952;10.818;2023-05-16T01:14:55;7.03;;;5.55;;
28988;SDS011;16089;59.952;10.818;2023-05-16T01:17:28;8.57;;;4.88;;
28988;SDS011;16089;59.952;10.818;2023-05-16T01:20:01;7.65;;;5.43;;
28988;SDS011;16089;59.952;10.818;2023-05-16T01:22:34;6.80;;;5.07;;
28988;SDS011;16089;59.952;10.818;2023-05-16T01:25:08;6.95;;;5.25;;
28988;SDS011;16089;59.952;10.818;2023-05-16T01:27:38;7.50;;;4.97;;
28988;SDS011;16089;59.952;10.818;2023-05-16T01:30:15;8.35;;;5.57;;
28988;SDS011;16089;59.952;10.818;2023-05-16T01:32:42;7.68;;;5.65;;
28988;SDS011;16089;59.952;10.818;2023-05-16T01:35:09;7.15;;;5.50;;
28988;SDS011;16089;59.952;10.818;2023-05-16T01:37:37;8.98;;;5.93;;
28988;SDS011;16089;59.952;10.818;2023-05-16T01:40:07;7.45;;;5.65;;
28988;SDS011;16089;59.952;10.818;2023-05-16T01:42:36;8.93;;;5.63;;
28988;SDS011;16089;59.952;10.818;2023-05-16T01:45:07;7.45;;;5.68;;
28988;SDS011;16089;59.952;10.818;2023-05-16T01:47:36;8.65;;;6.07;;
28988;SDS011;16089;59.952;10.818;2023-05-16T01:50:06;7.65;;;5.60;;
28988;SDS011;16089;59.952;10.818;2023-05-16T01:52:34;6.50;;;4.90;;
28988;SDS011;16089;59.952;10.818;2023-05-16T01:55:04;8.05;;;4.93;;
28988;SDS011;16089;59.952;10.818;2023-05-16T01:57:34;7.95;;;5.68;;
28988;SDS011;16089;59.952;10.818;2023-05-16T02:00:01;8.50;;;5.78;;
28988;SDS011;16089;59.952;10.818;2023-05-16T02:02:29;8.35;;;6.32;;
28988;SDS011;16089;59.952;10.818;2023-05-16T02:04:56;9.10;;;5.78;;
28988;SDS011;16089;59.952;10.818;2023-05-16T02:07:22;9.10;;;6.63;;
28988;SDS011;16089;59.952;10.818;2023-05-16T02:09:48;9.13;;;5.90;;
28988;SDS011;16089;59.952;10.818;2023-05-16T02:12:15;11.82;;;6.90;;
28988;SDS011;16089;59.952;10.818;2023-05-16T02:14:42;8.63;;;6.50;;
28988;SDS011;16089;59.952;10.818;2023-05-16T02:17:08;8.30;;;6.03;;
28988;SDS011;16089;59.952;10.818;2023-05-16T02:19:36;9.27;;;6.60;;
28988;SDS011;16089;59.952;10.818;2023-05-16T02:22:02;8.95;;;6.72;;
28988;SDS011;16089;59.952;10.818;2023-05-16T02:24:28;7.80;;;6.32;;
28988;SDS011;16089;59.952;10.818;2023-05-16T02:26:55;8.85;;;6.20;;
28988;SDS011;16089;59.952;10.818;2023-05-16T02:29:21;9.55;;;6.43;;
28988;SDS011;16089;59.952;10.818;2023-05-16T02:31:48;7.40;;;6.35;;
28988;SDS011;16089;59.952;10.818;2023-05-16T02:34:14;8.27;;;6.13;;
28988;SDS011;16089;59.952;10.818;2023-05-16T02:36:42;11.35;;;7.28;;
28988;SDS011;16089;59.952;10.818;2023-05-16T02:39:08;9.93;;;6.85;;
28988;SDS011;16089;59.952;10.818;2023-05-16T02:41:35;8.63;;;6.03;;
28988;SDS011;16089;59.952;10.818;2023-05-16T02:44:02;8.82;;;6.70;;
28988;SDS011;16089;59.952;10.818;2023-05-16T02:46:29;11.48;;;6.82;;
28988;SDS011;16089;59.952;10.818;2023-05-16T02:48:56;7.95;;;5.80;;
28988;SDS011;16089;59.952;10.818;2023-05-16T02:51:23;9.10;;;5.75;;
28988;SDS011;16089;59.952;10.818;2023-05-16T02:53:51;7.85;;;5.90;;
28988;SDS011;16089;59.952;10.818;2023-05-16T02:56:17;9.57;;;5.60;;
28988;SDS011;16089;59.952;10.818;2023-05-16T02:58:45;8.02;;;5.57;;
28988;SDS011;16089;59.952;10.818;2023-05-16T03:01:11;8.98;;;6.07;;
28988;SDS011;16089;59.952;10.818;2023-05-16T03:03:38;9.25;;;5.55;;
28988;SDS011;16089;59.952;10.818;2023-05-16T03:06:04;7.22;;;5.45;;
28988;SDS011;16089;59.952;10.818;2023-05-16T03:08:31;7.47;;;5.28;;
28988;SDS011;16089;59.952;10.818;2023-05-16T03:10:59;6.22;;;4.72;;
28988;SDS011;16089;59.952;10.818;2023-05-16T03:13:25;7.95;;;5.35;;
28988;SDS011;16089;59.952;10.818;2023-05-16T03:15:53;11.55;;;5.65;;
28988;SDS011;16089;59.952;10.818;2023-05-16T03:18:19;8.45;;;5.65;;
28988;SDS011;16089;59.952;10.818;2023-05-16T03:20:46;7.72;;;5.20;;
28988;SDS011;16089;59.952;10.818;2023-05-16T03:23:12;6.20;;;4.97;;
28988;SDS011;16089;59.952;10.818;2023-05-16T03:25:39;7.25;;;5.38;;
28988;SDS011;16089;59.952;10.818;2023-05-16T03:28:08;7.65;;;5.05;;
28988;SDS011;16089;59.952;10.818;2023-05-16T03:30:35;6.68;;;5.00;;
28988;SDS011;16089;59.952;10.818;2023-05-16T03:33:01;7.55;;;5.55;;
28988;SDS011;16089;59.952;10.818;2023-05-16T03:35:27;8.98;;;5.57;;
28988;SDS011;16089;59.952;10.818;2023-05-16T03:37:54;8.55;;;5.35;;
28988;SDS011;16089;59.952;10.818;2023-05-16T03:40:21;5.72;;;4.82;;
28988;SDS011;16089;59.952;10.818;2023-05-16T03:42:47;6.47;;;4.82;;
28988;SDS011;16089;59.952;10.818;2023-05-16T03:45:15;7.85;;;5.50;;
28988;SDS011;16089;59.952;10.818;2023-05-16T03:47:41;8.95;;;5.57;;
28988;SDS011;16089;59.952;10.818;2023-05-16T03:50:08;7.20;;;4.85;;
28988;SDS011;16089;59.952;10.818;2023-05-16T03:52:35;8.65;;;4.97;;
28988;SDS011;16089;59.952;10.818;2023-05-16T03:55:01;7.47;;;5.35;;
28988;SDS011;16089;59.952;10.818;2023-05-16T03:57:29;8.85;;;5.43;;
28988;SDS011;16089;59.952;10.818;2023-05-16T03:59:56;7.57;;;5.45;;
28988;SDS011;16089;59.952;10.818;2023-05-16T04:02:23;7.38;;;5.68;;
28988;SDS011;16089;59.952;10.818;2023-05-16T04:04:50;8.15;;;5.97;;
28988;SDS011;16089;59.952;10.818;2023-05-16T04:07:16;9.48;;;6.07;;
28988;SDS011;16089;59.952;10.818;2023-05-16T04:09:43;8.98;;;5.97;;
28988;SDS011;16089;59.952;10.818;2023-05-16T04:12:09;9.05;;;6.22;;
28988;SDS011;16089;59.952;10.818;2023-05-16T04:14:35;8.18;;;5.53;;
28988;SDS011;16089;59.952;10.818;2023-05-16T04:17:02;9.45;;;6.53;;
28988;SDS011;16089;59.952;10.818;2023-05-16T04:19:29;9.02;;;5.80;;
28988;SDS011;16089;59.952;10.818;2023-05-16T04:21:56;8.32;;;6.65;;
28988;SDS011;16089;59.952;10.818;2023-05-16T04:24:22;8.70;;;6.35;;
28988;SDS011;16089;59.952;10.818;2023-05-16T04:26:50;8.90;;;5.82;;
28988;SDS011;16089;59.952;10.818;2023-05-16T04:29:16;8.68;;;6.18;;
28988;SDS011;16089;59.952;10.818;2023-05-16T04:31:43;7.93;;;5.50;;
28988;SDS011;16089;59.952;10.818;2023-05-16T04:34:10;9.50;;;6.03;;
28988;SDS011;16089;59.952;10.818;2023-05-16T04:36:38;7.10;;;5.20;;
28988;SDS011;16089;59.952;10.818;2023-05-16T04:39:05;10.05;;;5.57;;
28988;SDS011;16089;59.952;10.818;2023-05-16T04:41:31;8.73;;;4.97;;
28988;SDS011;16089;59.952;10.818;2023-05-16T04:43:57;6.95;;;5.22;;
28988;SDS011;16089;59.952;10.818;2023-05-16T04:46:24;6.93;;;5.45;;
28988;SDS011;16089;59.952;10.818;2023-05-16T04:48:50;9.25;;;5.65;;
28988;SDS011;16089;59.952;10.818;2023-05-16T04:51:17;7.05;;;5.20;;
28988;SDS011;16089;59.952;10.818;2023-05-16T04:53:44;6.78;;;5.65;;
28988;SDS011;16089;59.952;10.818;2023-05-16T04:56:11;8.35;;;6.60;;
28988;SDS011;16089;59.952;10.818;2023-05-16T04:58:37;7.55;;;5.35;;
28988;SDS011;16089;59.952;10.818;2023-05-16T05:01:04;6.53;;;5.15;;
28988;SDS011;16089;59.952;10.818;2023-05-16T05:03:30;7.90;;;5.80;;
28988;SDS011;16089;59.952;10.818;2023-05-16T05:05:56;7.45;;;5.30;;
28988;SDS011;16089;59.952;10.818;2023-05-16T05:08:23;8.13;;;5.78;;
28988;SDS011;16089;59.952;10.818;2023-05-16T05:10:50;9.25;;;5.28;;
28988;SDS011;16089;59.952;10.818;2023-05-16T05:13:17;7.30;;;5.05;;
28988;SDS011;16089;59.952;10.818;2023-05-16T05:15:43;7.88;;;5.13;;
28988;SDS011;16089;59.952;10.818;2023-05-16T05:18:09;7.00;;;4.90;;
28988;SDS011;16089;59.952;10.818;2023-05-16T05:20:36;10.80;;;4.97;;
28988;SDS011;16089;59.952;10.818;2023-05-16T05:23:02;10.75;;;4.65;;
28988;SDS011;16089;59.952;10.818;2023-05-16T05:25:28;8.48;;;4.57;;
28988;SDS011;16089;59.952;10.818;2023-05-16T05:27:56;7.43;;;4.40;;
28988;SDS011;16089;59.952;10.818;2023-05-16T05:30:23;8.30;;;4.80;;
28988;SDS011;16089;59.952;10.818;2023-05-16T05:32:49;7.35;;;4.60;;
28988;SDS011;16089;59.952;10.818;2023-05-16T05:35:15;6.60;;;4.47;;
28988;SDS011;16089;59.952;10.818;2023-05-16T05:37:42;6.60;;;4.85;;
28988;SDS011;16089;59.952;10.818;2023-05-16T05:40:08;6.25;;;4.43;;
28988;SDS011;16089;59.952;10.818;2023-05-16T05:42:35;8.25;;;4.60;;
28988;SDS011;16089;59.952;10.818;2023-05-16T05:45:03;6.93;;;4.32;;
28988;SDS011;16089;59.952;10.818;2023-05-16T05:47:29;9.73;;;4.78;;
28988;SDS011;16089;59.952;10.818;2023-05-16T05:49:55;7.03;;;4.53;;
28988;SDS011;16089;59.952;10.818;2023-05-16T05:52:23;6.25;;;4.68;;
28988;SDS011;16089;59.952;10.818;2023-05-16T05:54:50;6.03;;;4.38;;
28988;SDS011;16089;59.952;10.818;2023-05-16T05:57:16;6.55;;;4.70;;
28988;SDS011;16089;59.952;10.818;2023-05-16T05:59:42;5.53;;;4.07;;
28988;SDS011;16089;59.952;10.818;2023-05-16T06:02:10;7.68;;;4.90;;
28988;SDS011;16089;59.952;10.818;2023-05-16T06:04:36;6.70;;;4.68;;
28988;SDS011;16089;59.952;10.818;2023-05-16T06:07:03;8.65;;;5.30;;
28988;SDS011;16089;59.952;10.818;2023-05-16T06:09:30;6.53;;;4.32;;
28988;SDS011;16089;59.952;10.818;2023-05-16T06:11:56;8.38;;;5.20;;
28988;SDS011;16089;59.952;10.818;2023-05-16T06:14:22;7.28;;;4.43;;
28988;SDS011;16089;59.952;10.818;2023-05-16T06:16:49;6.20;;;4.50;;
28988;SDS011;16089;59.952;10.818;2023-05-16T06:19:16;5.10;;;4.00;;
28988;SDS011;16089;59.952;10.818;2023-05-16T06:21:43;6.45;;;4.38;;
28988;SDS011;16089;59.952;10.818;2023-05-16T06:24:09;7.90;;;4.72;;
28988;SDS011;16089;59.952;10.818;2023-05-16T06:26:36;6.13;;;4.72;;
28988;SDS011;16089;59.952;10.818;2023-05-16T06:29:02;7.97;;;4.80;;
28988;SDS011;16089;59.952;10.818;2023-05-16T06:31:29;7.85;;;4.50;;
28988;SDS011;16089;59.952;10.818;2023-05-16T06:33:56;7.65;;;4.70;;
28988;SDS011;16089;59.952;10.818;2023-05-16T06:36:24;8.85;;;4.65;;
28988;SDS011;16089;59.952;10.818;2023-05-16T06:38:50;7.50;;;4.97;;
28988;SDS011;16089;59.952;10.818;2023-05-16T06:41:16;8.48;;;4.65;;
28988;SDS011;16089;59.952;10.818;2023-05-16T06:43:43;7.05;;;5.18;;
28988;SDS011;16089;59.952;10.818;2023-05-16T06:46:09;7.30;;;4.80;;
28988;SDS011;16089;59.952;10.818;2023-05-16T06:48:35;8.27;;;5.47;;
28988;SDS011;16089;59.952;10.818;2023-05-16T06:51:02;7.00;;;4.90;;
28988;SDS011;16089;59.952;10.818;2023-05-16T06:53:29;8.65;;;5.07;;
28988;SDS011;16089;59.952;10.818;2023-05-16T06:55:56;6.57;;;4.80;;
28988;SDS011;16089;59.952;10.818;2023-05-16T06:58:22;8.75;;;5.22;;
28988;SDS011;16089;59.952;10.818;2023-05-16T07:00:50;8.00;;;5.22;;
28988;SDS011;16089;59.952;10.818;2023-05-16T07:03:16;6.70;;;4.85;;
28988;SDS011;16089;59.952;10.818;2023-05-16T07:05:42;7.65;;;4.32;;
28988;SDS011;16089;59.952;10.818;2023-05-16T07:08:09;7.85;;;4.85;;
28988;SDS011;16089;59.952;10.818;2023-05-16T07:10:37;7.78;;;5.07;;
28988;SDS011;16089;59.952;10.818;2023-05-16T07:13:03;9.32;;;5.22;;
28988;SDS011;16089;59.952;10.818;2023-05-16T07:15:30;6.13;;;4.78;;
28988;SDS011;16089;59.952;10.818;2023-05-16T07:17:56;6.88;;;4.57;;
28988;SDS011;16089;59.952;10.818;2023-05-16T07:20:23;6.10;;;4.53;;
28988;SDS011;16089;59.952;10.818;2023-05-16T07:22:49;7.22;;;4.80;;
28988;SDS011;16089;59.952;10.818;2023-05-16T07:25:16;8.98;;;5.53;;
28988;SDS011;16089;59.952;10.818;2023-05-16T07:27:43;8.27;;;4.93;;
28988;SDS011;16089;59.952;10.818;2023-05-16T07:30:10;7.53;;;5.22;;
28988;SDS011;16089;59.952;10.818;2023-05-16T07:32:37;8.65;;;5.70;;
28988;SDS011;16089;59.952;10.818;2023-05-16T07:35:03;6.57;;;5.13;;
28988;SDS011;16089;59.952;10.818;2023-05-16T07:37:30;7.28;;;5.13;;
28988;SDS011;16089;59.952;10.818;2023-05-16T07:39:56;7.38;;;5.22;;
28988;SDS011;16089;59.952;10.818;2023-05-16T07:42:23;7.38;;;5.53;;
28988;SDS011;16089;59.952;10.818;2023-05-16T07:44:50;7.45;;;5.05;;
28988;SDS011;16089;59.952;10.818;2023-05-16T07:47:17;6.63;;;5.05;;
28988;SDS011;16089;59.952;10.818;2023-05-16T07:49:43;8.48;;;5.22;;
28988;SDS011;16089;59.952;10.818;2023-05-16T07:52:10;7.15;;;5.07;;
28988;SDS011;16089;59.952;10.818;2023-05-16T07:54:36;8.02;;;5.45;;
28988;SDS011;16089;59.952;10.818;2023-05-16T07:57:03;8.32;;;5.45;;
28988;SDS011;16089;59.952;10.818;2023-05-16T07:59:29;8.25;;;4.93;;
28988;SDS011;16089;59.952;10.818;2023-05-16T08:01:57;7.55;;;5.13;;
28988;SDS011;16089;59.952;10.818;2023-05-16T08:04:23;7.50;;;4.80;;
28988;SDS011;16089;59.952;10.818;2023-05-16T08:06:49;8.98;;;5.38;;
28988;SDS011;16089;59.952;10.818;2023-05-16T08:09:16;7.45;;;5.57;;
28988;SDS011;16089;59.952;10.818;2023-05-16T08:11:43;10.02;;;5.63;;
28988;SDS011;16089;59.952;10.818;2023-05-16T08:14:10;8.00;;;5.97;;
28988;SDS011;16089;59.952;10.818;2023-05-16T08:16:36;7.82;;;5.15;;
28988;SDS011;16089;59.952;10.818;2023-05-16T08:19:04;6.82;;;5.03;;
28988;SDS011;16089;59.952;10.818;2023-05-16T08:21:31;7.38;;;5.57;;
28988;SDS011;16089;59.952;10.818;2023-05-16T08:23:57;8.70;;;6.10;;
28988;SDS011;16089;59.952;10.818;2023-05-16T08:26:24;11.20;;;5.40;;
28988;SDS011;16089;59.952;10.818;2023-05-16T08:28:50;10.70;;;5.90;;
28988;SDS011;16089;59.952;10.818;2023-05-16T08:31:16;7.97;;;5.90;;
28988;SDS011;16089;59.952;10.818;2023-05-16T08:33:43;9.45;;;5.78;;
28988;SDS011;16089;59.952;10.818;2023-05-16T08:36:10;8.20;;;5.82;;
28988;SDS011;16089;59.952;10.818;2023-05-16T08:38:37;7.22;;;5.95;;
28988;SDS011;16089;59.952;10.818;2023-05-16T08:41:03;9.52;;;6.00;;
28988;SDS011;16089;59.952;10.818;2023-05-16T08:43:30;8.52;;;5.90;;
28988;SDS011;16089;59.952;10.818;2023-05-16T08:45:59;9.18;;;5.50;;
28988;SDS011;16089;59.952;10.818;2023-05-16T08:48:25;10.07;;;5.93;;
28988;SDS011;16089;59.952;10.818;2023-05-16T08:50:53;9.18;;;5.97;;
28988;SDS011;16089;59.952;10.818;2023-05-16T08:53:21;9.50;;;5.53;;
28988;SDS011;16089;59.952;10.818;2023-05-16T08:55:50;7.05;;;5.20;;
28988;SDS011;16089;59.952;10.818;2023-05-16T08:58:18;7.70;;;5.28;;
28988;SDS011;16089;59.952;10.818;2023-05-16T09:00:44;6.97;;;4.82;;
28988;SDS011;16089;59.952;10.818;2023-05-16T09:03:11;8.20;;;5.50;;
28988;SDS011;16089;59.952;10.818;2023-05-16T09:05:38;8.23;;;5.60;;
28988;SDS011;16089;59.952;10.818;2023-05-16T09:08:05;8.13;;;5.63;;
28988;SDS011;16089;59.952;10.818;2023-05-16T09:10:32;7.18;;;5.55;;
28988;SDS011;16089;59.952;10.818;2023-05-16T09:12:59;9.57;;;5.60;;
28988;SDS011;16089;59.952;10.818;2023-05-16T09:15:27;9.18;;;5.70;;
28988;SDS011;16089;59.952;10.818;2023-05-16T09:17:58;10.82;;;6.10;;
28988;SDS011;16089;59.952;10.818;2023-05-16T09:20:25;9.13;;;6.80;;
28988;SDS011;16089;59.952;10.818;2023-05-16T09:22:52;8.73;;;7.00;;
28988;SDS011;16089;59.952;10.818;2023-05-16T09:25:18;11.23;;;6.43;;
28988;SDS011;16089;59.952;10.818;2023-05-16T09:27:46;9.82;;;7.10;;
28988;SDS011;16089;59.952;10.818;2023-05-16T09:30:13;10.85;;;7.53;;
28988;SDS011;16089;59.952;10.818;2023-05-16T09:32:42;12.35;;;7.82;;
28988;SDS011;16089;59.952;10.818;2023-05-16T09:35:08;12.60;;;7.53;;
28988;SDS011;16089;59.952;10.818;2023-05-16T09:37:36;11.23;;;8.68;;
28988;SDS011;16089;59.952;10.818;2023-05-16T09:40:02;11.05;;;8.60;;
28988;SDS011;16089;59.952;10.818;2023-05-16T09:42:29;13.48;;;8.88;;
28988;SDS011;16089;59.952;10.818;2023-05-16T09:44:57;13.60;;;8.18;;
28988;SDS011;16089;59.952;10.818;2023-05-16T09:47:26;14.48;;;8.48;;
28988;SDS011;16089;59.952;10.818;2023-05-16T09:49:53;13.75;;;8.98;;
28988;SDS011;16089;59.952;10.818;2023-05-16T09:52:19;11.10;;;7.90;;
28988;SDS011;16089;59.952;10.818;2023-05-16T09:54:46;11.50;;;8.00;;
28988;SDS011;16089;59.952;10.818;2023-05-16T09:57:16;11.60;;;7.90;;
28988;SDS011;16089;59.952;10.818;2023-05-16T09:59:51;12.35;;;8.20;;
28988;SDS011;16089;59.952;10.818;2023-05-16T10:02:18;10.90;;;7.82;;
28988;SDS011;16089;59.952;10.818;2023-05-16T10:04:45;11.98;;;8.88;;
28988;SDS011;16089;59.952;10.818;2023-05-16T10:07:12;16.38;;;10.85;;
28988;SDS011;16089;59.952;10.818;2023-05-16T10:09:38;13.40;;;9.88;;
28988;SDS011;16089;59.952;10.818;2023-05-16T10:12:06;12.90;;;8.50;;
28988;SDS011;16089;59.952;10.818;2023-05-16T10:14:34;13.10;;;9.32;;
28988;SDS011;16089;59.952;10.818;2023-05-16T10:17:01;12.93;;;8.57;;
28988;SDS011;16089;59.952;10.818;2023-05-16T10:19:30;16.17;;;8.73;;
28988;SDS011;16089;59.952;10.818;2023-05-16T10:21:57;12.30;;;8.75;;
28988;SDS011;16089;59.952;10.818;2023-05-16T10:24:25;11.23;;;8.50;;
28988;SDS011;16089;59.952;10.818;2023-05-16T10:26:54;13.80;;;9.32;;
28988;SDS011;16089;59.952;10.818;2023-05-16T10:29:21;12.10;;;8.95;;
28988;SDS011;16089;59.952;10.818;2023-05-16T10:31:47;12.63;;;9.07;;
28988;SDS011;16089;59.952;10.818;2023-05-16T10:34:14;11.85;;;9.15;;
28988;SDS011;16089;59.952;10.818;2023-05-16T10:36:42;16.58;;;10.57;;
28988;SDS011;16089;59.952;10.818;2023-05-16T10:39:09;16.83;;;10.00;;
28988;SDS011;16089;59.952;10.818;2023-05-16T10:41:36;14.60;;;9.70;;
28988;SDS011;16089;59.952;10.818;2023-05-16T10:44:02;14.73;;;10.18;;
28988;SDS011;16089;59.952;10.818;2023-05-16T10:46:29;13.15;;;9.88;;
28988;SDS011;16089;59.952;10.818;2023-05-16T10:48:56;13.23;;;9.43;;
28988;SDS011;16089;59.952;10.818;2023-05-16T10:51:32;12.98;;;9.50;;
28988;SDS011;16089;59.952;10.818;2023-05-16T10:54:04;12.70;;;9.25;;
28988;SDS011;16089;59.952;10.818;2023-05-16T10:56:32;15.07;;;10.07;;
28988;SDS011;16089;59.952;10.818;2023-05-16T10:58:58;14.50;;;8.63;;
28988;SDS011;16089;59.952;10.818;2023-05-16T11:01:25;12.70;;;9.93;;
28988;SDS011;16089;59.952;10.818;2023-05-16T11:03:59;13.68;;;9.15;;
28988;SDS011;16089;59.952;10.818;2023-05-16T11:06:27;13.32;;;9.43;;
28988;SDS011;16089;59.952;10.818;2023-05-16T11:09:02;16.08;;;10.07;;
28988;SDS011;16089;59.952;10.818;2023-05-16T11:11:43;11.38;;;8.18;;
28988;SDS011;16089;59.952;10.818;2023-05-16T11:14:16;13.60;;;8.43;;
28988;SDS011;16089;59.952;10.818;2023-05-16T11:16:47;11.02;;;8.02;;
28988;SDS011;16089;59.952;10.818;2023-05-16T11:19:13;15.32;;;8.90;;
28988;SDS011;16089;59.952;10.818;2023-05-16T11:22:10;12.23;;;8.02;;
28988;SDS011;16089;59.952;10.818;2023-05-16T11:24:44;14.18;;;8.85;;
28988;SDS011;16089;59.952;10.818;2023-05-16T11:27:18;16.42;;;10.23;;
28988;SDS011;16089;59.952;10.818;2023-05-16T11:29:45;12.82;;;9.40;;
28988;SDS011;16089;59.952;10.818;2023-05-16T11:32:12;11.10;;;9.18;;
28988;SDS011;16089;59.952;10.818;2023-05-16T11:34:39;13.15;;;10.02;;
28988;SDS011;16089;59.952;10.818;2023-05-16T11:37:09;15.45;;;10.65;;
28988;SDS011;16089;59.952;10.818;2023-05-16T11:39:35;15.50;;;10.20;;
28988;SDS011;16089;59.952;10.818;2023-05-16T11:42:02;13.15;;;9.77;;
28988;SDS011;16089;59.952;10.818;2023-05-16T11:44:30;14.50;;;9.80;;
28988;SDS011;16089;59.952;10.818;2023-05-16T11:46:56;12.52;;;9.30;;
28988;SDS011;16089;59.952;10.818;2023-05-16T11:49:22;15.10;;;9.52;;
28988;SDS011;16089;59.952;10.818;2023-05-16T11:51:51;14.52;;;8.23;;
28988;SDS011;16089;59.952;10.818;2023-05-16T11:54:19;13.20;;;8.15;;
28988;SDS011;16089;59.952;10.818;2023-05-16T11:56:45;10.90;;;7.95;;
28988;SDS011;16089;59.952;10.818;2023-05-16T11:59:12;11.40;;;8.10;;
28988;SDS011;16089;59.952;10.818;2023-05-16T12:01:41;11.85;;;8.13;;
28988;SDS011;16089;59.952;10.818;2023-05-16T12:04:07;12.35;;;9.05;;
28988;SDS011;16089;59.952;10.818;2023-05-16T12:06:35;13.30;;;8.55;;
28988;SDS011;16089;59.952;10.818;2023-05-16T12:09:01;11.10;;;8.65;;
28988;SDS011;16089;59.952;10.818;2023-05-16T12:11:34;14.65;;;9.30;;
28988;SDS011;16089;59.952;10.818;2023-05-16T12:14:01;13.02;;;10.50;;
28988;SDS011;16089;59.952;10.818;2023-05-16T12:16:28;13.82;;;9.80;;
28988;SDS011;16089;59.952;10.818;2023-05-16T12:18:57;14.82;;;10.02;;
28988;SDS011;16089;59.952;10.818;2023-05-16T12:21:23;12.93;;;8.93;;
28988;SDS011;16089;59.952;10.818;2023-05-16T12:23:52;13.25;;;7.90;;
28988;SDS011;16089;59.952;10.818;2023-05-16T12:26:22;8.38;;;7.07;;
28988;SDS011;16089;59.952;10.818;2023-05-16T12:28:52;10.13;;;6.75;;
28988;SDS011;16089;59.952;10.818;2023-05-16T12:31:20;10.52;;;7.53;;
28988;SDS011;16089;59.952;10.818;2023-05-16T12:33:46;11.45;;;7.88;;
28988;SDS011;16089;59.952;10.818;2023-05-16T12:36:14;11.75;;;8.98;;
28988;SDS011;16089;59.952;10.818;2023-05-16T12:38:44;11.45;;;9.05;;
28988;SDS011;16089;59.952;10.818;2023-05-16T12:41:11;14.70;;;9.50;;
28988;SDS011;16089;59.952;10.818;2023-05-16T12:43:42;12.20;;;9.55;;
28988;SDS011;16089;59.952;10.818;2023-05-16T12:46:09;13.63;;;9.05;;
28988;SDS011;16089;59.952;10.818;2023-05-16T12:48:36;11.50;;;8.93;;
28988;SDS011;16089;59.952;10.818;2023-05-16T12:51:10;13.55;;;9.57;;
28988;SDS011;16089;59.952;10.818;2023-05-16T12:53:41;14.15;;;9.35;;
28988;SDS011;16089;59.952;10.818;2023-05-16T12:56:09;11.80;;;8.85;;
28988;SDS011;16089;59.952;10.818;2023-05-16T12:58:36;11.15;;;8.68;;
28988;SDS011;16089;59.952;10.818;2023-05-16T13:01:02;14.63;;;9.55;;
28988;SDS011;16089;59.952;10.818;2023-05-16T13:03:29;12.40;;;8.80;;
28988;SDS011;16089;59.952;10.818;2023-05-16T13:05:55;11.50;;;8.07;;
28988;SDS011;16089;59.952;10.818;2023-05-16T13:08:22;11.35;;;7.57;;
28988;SDS011;16089;59.952;10.818;2023-05-16T13:10:50;10.48;;;7.85;;
28988;SDS011;16089;59.952;10.818;2023-05-16T13:13:16;11.68;;;8.77;;
28988;SDS011;16089;59.952;10.818;2023-05-16T13:15:43;13.77;;;8.10;;
28988;SDS011;16089;59.952;10.818;2023-05-16T13:18:09;9.07;;;6.82;;
28988;SDS011;16089;59.952;10.818;2023-05-16T13:20:36;9.07;;;6.60;;
28988;SDS011;16089;59.952;10.818;2023-05-16T13:23:03;10.02;;;6.40;;
28988;SDS011;16089;59.952;10.818;2023-05-16T13:25:29;10.68;;;6.63;;
28988;SDS011;16089;59.952;10.818;2023-05-16T13:27:57;10.20;;;7.07;;
28988;SDS011;16089;59.952;10.818;2023-05-16T13:30:23;10.10;;;6.32;;
28988;SDS011;16089;59.952;10.818;2023-05-16T13:32:50;11.63;;;6.50;;
28988;SDS011;16089;59.952;10.818;2023-05-16T13:35:17;8.98;;;6.30;;
28988;SDS011;16089;59.952;10.818;2023-05-16T13:37:43;8.73;;;6.45;;
28988;SDS011;16089;59.952;10.818;2023-05-16T13:40:10;7.80;;;6.18;;
28988;SDS011;16089;59.952;10.818;2023-05-16T13:42:37;9.05;;;5.80;;
28988;SDS011;16089;59.952;10.818;2023-05-16T13:45:05;9.02;;;6.18;;
28988;SDS011;16089;59.952;10.818;2023-05-16T13:47:31;9.93;;;6.63;;
28988;SDS011;16089;59.952;10.818;2023-05-16T13:49:58;7.60;;;6.18;;
28988;SDS011;16089;59.952;10.818;2023-05-16T13:52:28;8.40;;;5.70;;
28988;SDS011;16089;59.952;10.818;2023-05-16T13:54:55;10.40;;;6.20;;
28988;SDS011;16089;59.952;10.818;2023-05-16T13:57:21;11.23;;;5.75;;
28988;SDS011;16089;59.952;10.818;2023-05-16T13:59:48;10.73;;;5.70;;
28988;SDS011;16089;59.952;10.818;2023-05-16T14:02:15;9.38;;;5.00;;
28988;SDS011;16089;59.952;10.818;2023-05-16T14:04:42;8.07;;;5.30;;
28988;SDS011;16089;59.952;10.818;2023-05-16T14:07:08;8.35;;;5.38;;
28988;SDS011;16089;59.952;10.818;2023-05-16T14:09:34;11.07;;;5.47;;
28988;SDS011;16089;59.952;10.818;2023-05-16T14:12:03;7.47;;;5.05;;
28988;SDS011;16089;59.952;10.818;2023-05-16T14:14:31;10.63;;;5.18;;
28988;SDS011;16089;59.952;10.818;2023-05-16T14:16:57;9.30;;;5.10;;
28988;SDS011;16089;59.952;10.818;2023-05-16T14:19:25;8.35;;;4.50;;
28988;SDS011;16089;59.952;10.818;2023-05-16T14:21:51;8.30;;;4.30;;
28988;SDS011;16089;59.952;10.818;2023-05-16T14:24:18;7.55;;;3.70;;
28988;SDS011;16089;59.952;10.818;2023-05-16T14:26:44;6.50;;;3.95;;
28988;SDS011;16089;59.952;10.818;2023-05-16T14:29:11;8.38;;;4.00;;